Latest Weather Observations for Lake Macquarie - Cooranbong

IDN60901

Issued at 10:31 am EDT Wednesday 16 January 2019 (issued every 10 minutes, with the page automatically refreshed every 10 minutes)

About weather observations | Map of Sydney area stations | Latest observations for Sydney area | Other Formats
Station Details ID: 061412 Name: LAKE MACQUARIE AWS Lat: -33.09 Lon: 151.46 Height: 6.0 m
Data from the previous 72 hours. | See also: Recent months at Lake Macquarie - Cooranbong
Date/Time
EDT
Temp
°C
App
Temp
°C
Dew
Point
°C
Rel
Hum
%
Delta-T
°C
Wind Press
QNH
hPa
Press
MSL
hPa
Rain since
9am
mm
Dir  Spd
km/h
Gust
km/h
Spd
kts
Gust
kts
16/10:30am 30.2 34.1 22.6 63 5.2 E 6 9 3 5 1010.1 1010.1 0.0
16/10:00am 29.5 33.7 22.5 66 4.8 SSE 4 7 2 4 1010.1 1010.1 0.0
16/09:30am 28.3 32.5 22.5 71 3.9 SSE 4 9 2 5 1010.3 1010.3 0.0
16/09:00am 26.9 31.3 22.1 75 3.2 ESE 2 6 1 3 1010.3 1010.3 0.0
16/08:30am 25.5 29.9 21.4 78 2.7 CALM 0 0 0 0 1010.2 1010.2 0.0
16/08:00am 23.9 27.8 21.2 85 1.8 S 2 4 1 2 1010.2 1010.2 0.0
16/07:30am 22.2 26.4 21.0 93 0.8 CALM 0 0 0 0 1009.8 1009.8 0.0
16/07:00am 20.9 24.3 20.1 95 0.5 N 2 4 1 2 1009.2 1009.2 0.0
16/06:30am 20.3 23.8 19.6 96 0.4 CALM 0 0 0 0 1009.1 1009.1 0.0
16/06:00am 20.1 23.5 19.4 96 0.4 CALM 0 0 0 0 1008.8 1008.7 0.0
16/05:30am 20.1 23.2 19.4 96 0.4 SW 2 7 1 4 1009.0 1008.9 0.0
16/05:00am 20.1 23.5 19.4 96 0.4 CALM 0 0 0 0 1008.2 1008.1 0.0
16/04:30am 20.3 23.8 19.6 96 0.4 CALM 0 0 0 0 1008.4 1008.3 0.0
16/04:00am 20.6 24.2 19.8 95 0.5 CALM 0 0 0 0 1008.4 1008.3 0.0
16/03:30am 20.9 24.7 20.1 95 0.5 CALM 0 0 0 0 1008.5 1008.4 0.0
16/03:00am 21.1 25.0 20.3 95 0.5 CALM 0 0 0 0 1008.7 1008.6 0.0
16/02:30am 21.4 25.3 20.4 94 0.6 CALM 0 0 0 0 1008.9 1008.8 0.0
16/02:00am 21.3 25.0 19.9 92 0.9 CALM 0 0 0 0 1009.1 1009.1 0.0
16/01:30am 21.8 25.7 20.4 92 0.9 CALM 0 0 0 0 1009.4 1009.4 0.0
16/01:00am 22.2 26.3 20.8 92 0.9 CALM 0 0 0 0 1009.6 1009.6 0.0
16/12:30am 22.3 26.4 20.8 91 1.0 CALM 0 0 0 0 1009.7 1009.7 0.0
16/12:00am 22.8 27.2 21.3 91 1.0 CALM 0 0 0 0 1009.7 1009.7 0.0
 
Date/Time
EDT
Temp
°C
App
Temp
°C
Dew
Point
°C
Rel
Hum
%
Delta-T
°C
Wind Press
QNH
hPa
Press
MSL
hPa
Rain since
9am
mm
Dir  Spd
km/h
Gust
km/h
Spd
kts
Gust
kts
15/11:30pm 22.9 27.4 21.5 92 0.9 CALM 0 0 0 0 1009.7 1009.7 0.0
15/11:00pm 23.0 27.4 21.3 90 1.1 CALM 0 0 0 0 1009.8 1009.8 0.0
15/10:30pm 23.1 27.5 21.4 90 1.1 CALM 0 0 0 0 1009.9 1009.9 0.0
15/10:00pm 23.6 27.9 21.1 86 1.6 CALM 0 0 0 0 1010.1 1010.1 0.0
15/09:30pm 24.2 28.5 21.1 83 2.0 CALM 0 0 0 0 1010.0 1010.0 0.0
15/09:00pm 25.4 29.5 21.5 79 2.6 SW 2 2 1 1 1010.0 1010.0 0.0
15/08:30pm 25.9 30.0 21.6 77 2.9 S 2 4 1 2 1009.9 1009.9 0.0
15/08:00pm 26.5 30.3 21.7 75 3.2 SE 4 9 2 5 1009.7 1009.7 0.0
15/07:30pm 27.4 31.4 22.1 73 3.6 ESE 4 6 2 3 1009.6 1009.6 0.0
15/07:00pm 27.4 31.4 22.1 73 3.6 SE 4 7 2 4 1009.3 1009.3 0.0
15/06:30pm 27.6 31.2 22.1 72 3.7 SE 6 9 3 5 1009.4 1009.4 0.0
15/06:00pm 27.7 30.7 22.0 71 3.8 ESE 9 15 5 8 1009.0 1008.9 0.0
15/05:30pm 29.0 31.9 21.7 64 4.9 ESE 9 15 5 8 1008.9 1008.8 0.0
15/05:00pm 30.3 33.0 22.2 62 5.5 ESE 11 19 6 10 1008.9 1008.8 0.0
15/04:30pm 29.9 31.8 22.1 63 5.3 ESE 15 22 8 12 1009.3 1009.3 0.0
15/04:00pm 30.1 33.0 22.5 63 5.2 SE 11 17 6 9 1009.7 1009.7 0.0
15/03:30pm 29.5 31.4 21.4 61 5.4 ESE 13 19 7 10 1010.1 1010.1 0.0
15/03:00pm 29.8 32.4 22.0 63 5.3 ESE 11 20 6 11 1010.6 1010.6 0.0
15/02:30pm 30.1 31.4 21.7 60 5.7 ESE 17 26 9 14 1011.0 1011.0 0.0
15/02:00pm 29.8 31.1 21.7 61 5.5 ESE 17 24 9 13 1011.3 1011.3 0.0
15/01:30pm 29.9 31.3 21.0 59 5.9 E 15 28 8 15 1011.5 1011.5 0.0
15/01:00pm 31.0 34.3 22.6 61 5.7 E 9 17 5 9 1011.9 1011.9 0.0
15/12:30pm 30.6 33.6 21.9 59 5.9 ESE 9 15 5 8 1012.3 1012.3 0.0
15/12:00pm 30.6 33.5 21.7 59 6.0 E 9 15 5 8 1012.8 1012.8 0.0
15/11:30am 30.5 34.0 22.1 61 5.7 E 7 15 4 8 1013.1 1013.1 0.0
15/11:00am 29.4 32.4 20.8 60 5.7 NE 6 13 3 7 1013.5 1013.5 0.0
15/10:30am 28.3 31.6 20.8 63 5.0 NNE 4 7 2 4 1013.8 1013.8 0.0
15/10:00am 26.9 29.4 19.8 65 4.6 NE 6 11 3 6 1014.0 1014.0 0.0
15/09:30am 25.7 28.1 19.6 69 3.9 N 6 9 3 5 1014.1 1014.1 0.0
15/09:00am 25.1 27.8 19.5 71 3.6 ENE 4 7 2 4 1014.5 1014.5 0.0
15/08:30am 23.6 27.4 20.1 81 2.3 CALM 0 0 0 0 1014.8 1014.8 0.0
15/08:00am 22.6 26.0 19.4 82 2.0 CALM 0 0 0 0 1014.6 1014.6 0.0
15/07:30am 21.1 24.4 19.2 89 1.2 CALM 0 0 0 0 1014.6 1014.6 0.0
15/07:00am 20.2 23.7 19.5 96 0.4 CALM 0 0 0 0 1014.5 1014.5 0.0
15/06:30am 19.0 21.9 18.3 96 0.4 CALM 0 0 0 0 1014.2 1014.2 0.0
15/06:00am 18.8 21.7 18.1 96 0.4 CALM 0 0 0 0 1013.9 1013.9 0.0
15/05:30am 19.0 21.9 18.2 95 0.5 CALM 0 0 0 0 1013.8 1013.8 0.0
15/05:00am 19.1 22.0 18.3 95 0.5 CALM 0 0 0 0 1013.5 1013.5 0.0
15/04:30am 19.6 22.8 18.8 95 0.5 CALM 0 0 0 0 1013.3 1013.3 0.0
15/04:00am 19.7 22.5 18.9 95 0.5 WNW 2 4 1 2 1013.2 1013.2 0.0
15/03:30am 20.0 23.3 19.0 94 0.6 CALM 0 0 0 0 1013.4 1013.4 0.0
15/03:00am 20.2 23.5 19.2 94 0.6 CALM 0 0 0 0 1013.5 1013.5 0.0
15/02:30am 20.3 23.7 19.3 94 0.6 CALM 0 0 0 0 1013.3 1013.3 0.0
15/02:00am 20.4 23.8 19.4 94 0.6 CALM 0 0 0 0 1013.8 1013.8 0.0
15/01:30am 20.6 24.0 19.4 93 0.8 CALM 0 0 0 0 1013.8 1013.8 0.0
15/01:00am 20.9 24.5 19.7 93 0.8 CALM 0 0 0 0 1013.9 1013.9 0.0
15/12:30am 21.3 25.0 19.9 92 0.9 CALM 0 0 0 0 1014.2 1014.2 0.0
15/12:00am 21.7 25.4 20.0 90 1.1 CALM 0 0 0 0 1014.3 1014.3 0.0
 
Date/Time
EDT
Temp
°C
App
Temp
°C
Dew
Point
°C
Rel
Hum
%
Delta-T
°C
Wind Press
QNH
hPa
Press
MSL
hPa
Rain since
9am
mm
Dir  Spd
km/h
Gust
km/h
Spd
kts
Gust
kts
14/11:30pm 22.0 25.7 19.9 88 1.3 CALM 0 0 0 0 1014.4 1014.4 0.0
14/11:00pm 22.4 26.1 19.9 86 1.6 CALM 0 0 0 0 1014.4 1014.4 0.0
14/10:30pm 22.5 26.2 20.0 86 1.6 CALM 0 0 0 0 1014.5 1014.5 0.0
14/10:00pm 22.9 26.5 19.7 82 2.0 CALM 0 0 0 0 1014.5 1014.5 0.0
14/09:30pm 23.6 27.2 19.7 79 2.5 CALM 0 0 0 0 1014.4 1014.4 0.0
14/09:00pm 24.5 27.9 19.3 73 3.3 CALM 0 0 0 0 1014.2 1014.2 0.0
14/08:30pm 25.1 27.8 19.5 71 3.6 E 4 6 2 3 1014.0 1014.0 0.0
14/08:00pm 25.7 28.3 19.3 67 4.1 E 4 7 2 4 1013.9 1013.9 0.0
14/07:30pm 26.4 28.7 19.5 66 4.5 ENE 6 7 3 4 1013.8 1013.8 0.0
14/07:00pm 27.0 29.4 20.1 66 4.5 ESE 7 13 4 7 1013.8 1013.8 0.0
14/06:30pm 27.0 29.2 20.3 66 4.4 ESE 9 17 5 9 1013.9 1013.9 0.0
14/06:00pm 27.2 28.0 19.8 64 4.8 ESE 15 22 8 12 1014.0 1014.0 0.0
14/05:30pm 27.6 28.0 18.9 59 5.6 ESE 15 26 8 14 1014.1 1014.1 0.0
14/05:00pm 27.9 28.5 18.6 57 6.0 ESE 13 24 7 13 1014.3 1014.3 0.0
14/04:30pm 27.8 27.7 18.8 58 5.8 ESE 17 24 9 13 1014.6 1014.6 0.0
14/04:00pm 27.7 27.6 18.7 58 5.8 ESE 17 28 9 15 1015.1 1015.1 0.0
14/03:30pm 27.4 27.1 19.2 61 5.3 E 19 26 10 14 1015.5 1015.5 0.0
14/03:00pm 27.6 27.8 18.6 58 5.8 E 15 26 8 14 1015.9 1015.9 0.0
14/02:30pm 27.4 27.8 18.9 59 5.5 E 15 22 8 12 1016.3 1016.3 0.0
14/02:00pm 27.1 27.8 19.7 64 4.8 E 15 28 8 15 1016.6 1016.6 0.0
14/01:30pm 27.1 28.3 20.0 65 4.6 E 13 22 7 12 1016.9 1016.9 0.0
14/01:00pm 28.3 30.5 21.1 65 4.8 E 11 24 6 13 1017.3 1017.3 0.0
14/12:30pm 27.8 29.6 20.4 64 4.9 E 11 20 6 11 1017.8 1017.8 0.0
14/12:00pm 27.8 30.4 20.4 64 4.9 E 7 17 4 9 1018.1 1018.1 0.0
14/11:30am 27.4 30.4 20.0 64 4.8 SE 4 9 2 5 1018.4 1018.4 0.0
14/11:00am 26.3 28.6 19.9 68 4.2 SE 7 17 4 9 1018.6 1018.6 0.0
14/10:30am 26.7 29.4 20.3 68 4.2 E 6 11 3 6 1018.8 1018.8 0.0
14/10:00am 25.9 27.9 18.8 65 4.5 NE 6 7 3 4 1018.9 1018.9 0.0
14/09:30am 25.3 28.5 19.7 71 3.6 NNW 2 6 1 3 1019.1 1019.1 0.0
14/09:00am 25.5 28.6 20.3 73 3.4 N 4 9 2 5 1019.2 1019.2 0.0
14/08:30am 24.3 28.5 21.0 82 2.2 CALM 0 0 0 0 1019.4 1019.4 0.0
14/08:00am 23.0 26.6 20.5 86 1.6 S 2 4 1 2 1019.3 1019.3 0.0
14/07:30am 22.5 26.0 20.4 88 1.4 S 2 4 1 2 1019.2 1019.2 0.0
14/07:00am 21.9 25.3 20.2 90 1.1 WNW 2 4 1 2 1019.1 1019.1 0.0
14/06:30am 21.5 25.3 20.1 92 0.9 CALM 0 0 0 0 1018.9 1018.9 0.0
14/06:00am 21.1 24.7 19.7 92 0.9 CALM 0 0 0 0 1018.7 1018.7 0.0
14/05:30am 21.4 25.1 20.0 92 0.9 CALM 0 2 0 1 1018.7 1018.7 0.0
14/05:00am 21.4 25.1 19.9 91 1.0 CALM 0 0 0 0 1018.5 1018.5 0.0
14/04:30am 21.5 25.2 20.0 91 1.0 CALM 0 4 0 2 1018.6 1018.6 0.0
14/04:00am 21.5 24.8 20.0 91 1.0 WSW 2 6 1 3 1018.4 1018.4 0.0
14/03:30am 21.4 24.6 19.7 90 1.1 SSE 2 4 1 2 1018.5 1018.5 0.0
14/03:00am 21.7 25.0 20.0 90 1.1 SW 2 4 1 2 1018.7 1018.7 0.0
14/02:30am 21.7 24.9 19.8 89 1.2 WSW 2 6 1 3 1019.1 1019.1 0.0
14/02:00am 21.8 25.0 19.7 88 1.3 SSW 2 6 1 3 1019.5 1019.5 0.0
14/01:30am 22.0 25.3 19.9 88 1.3 SSW 2 6 1 3 1019.8 1019.8 0.0
14/01:00am 22.3 25.4 20.2 88 1.4 S 4 7 2 4 1020.0 1020.0 0.0
14/12:30am 22.4 25.8 20.1 87 1.5 SSW 2 6 1 3 1020.3 1020.3 0.0
14/12:00am 22.4 25.9 20.3 88 1.4 SSE 2 6 1 3 1020.3 1020.3 0.0
 
Date/Time
EDT
Temp
°C
App
Temp
°C
Dew
Point
°C
Rel
Hum
%
Delta-T
°C
Wind Press
QNH
hPa
Press
MSL
hPa
Rain since
9am
mm
Dir  Spd
km/h
Gust
km/h
Spd
kts
Gust
kts
13/11:30pm 22.6 25.8 20.5 88 1.4 SSW 4 4 2 2 1020.4 1020.4 0.0
13/11:00pm 22.6 26.2 20.5 88 1.4 S 2 4 1 2 1020.6 1020.6 0.0
13/10:30pm 22.7 26.3 20.6 88 1.4 SSE 2 6 1 3 1020.7 1020.7 0.0
13/10:00pm 22.7 25.9 20.4 87 1.5 S 4 6 2 3 1020.9 1020.9 0.0
13/09:30pm 22.7 26.2 20.4 87 1.5 SSE 2 4 1 2 1020.7 1020.7 0.0
13/09:00pm 22.8 26.8 20.5 87 1.5 CALM 0 0 0 0 1020.6 1020.6 0.0
13/08:30pm 22.9 26.4 20.4 86 1.6 S 2 6 1 3 1020.5 1020.5 0.0
13/08:00pm 23.0 25.7 20.3 85 1.7 SSE 6 11 3 6 1020.3 1020.3 0.0
13/07:30pm 23.4 26.2 20.5 84 1.9 S 6 13 3 7 1020.1 1020.1 0.0
13/07:00pm 23.6 26.1 20.3 82 2.1 SSE 7 15 4 8 1019.9 1019.9 0.0
13/06:30pm 24.0 26.5 20.3 80 2.4 SSE 7 20 4 11 1019.9 1019.9 0.0
13/06:00pm 24.4 27.2 20.5 79 2.5 SSE 6 11 3 6 1019.6 1019.6 0.0
13/05:30pm 24.4 25.5 19.7 75 3.0 SE 13 20 7 11 1019.4 1019.4 0.0
13/05:00pm 24.8 26.9 20.1 75 3.0 SE 9 20 5 11 1019.3 1019.3 0.0
13/04:30pm 25.3 26.5 19.9 72 3.5 SE 13 24 7 13 1019.3 1019.3 0.0
13/04:00pm 25.7 27.2 20.5 73 3.4 SSE 13 26 7 14 1019.3 1019.3 0.0
13/03:30pm 26.0 28.4 20.8 73 3.4 SSE 9 19 5 10 1019.4 1019.4 0.0
13/03:00pm 25.9 27.9 20.7 73 3.4 SSE 11 19 6 10 1019.6 1019.6 0.0
13/02:30pm 26.4 28.3 20.5 70 3.9 SSE 11 22 6 12 1019.7 1019.7 0.0
13/02:00pm 26.6 27.8 20.0 67 4.3 SSE 13 22 7 12 1019.6 1019.6 0.0
13/01:30pm 26.5 27.7 19.9 67 4.3 S 13 22 7 12 1019.7 1019.7 0.0
13/01:00pm 27.2 29.6 20.8 68 4.2 S 9 17 5 9 1019.9 1019.9 0.0
13/12:30pm 26.2 28.6 20.1 69 4.0 S 7 15 4 8 1020.1 1020.1 0.0
13/12:00pm 25.4 26.8 19.5 70 3.8 SSW 11 22 6 12 1020.1 1020.1 0.0
13/11:30am 25.4 26.9 19.8 71 3.6 SSE 11 19 6 10 1020.0 1020.0 0.0
13/11:00am 25.4 26.9 19.8 71 3.6 S 11 22 6 12 1020.1 1020.1 0.0

Latest Capital City Observations: Canberra | Sydney | Melbourne | Brisbane | Adelaide | Perth | Hobart | Darwin

Other Formats:

Comma delimited format used in spreadsheet applications
http://www.bom.gov.au/fwo/IDN60901/IDN60901.95767.axf

JavaScript Object Notation format (JSON) in row-major order
http://www.bom.gov.au/fwo/IDN60901/IDN60901.95767.json